sensor_id;sensor_type;location;lat;lon;timestamp;P1;durP1;ratioP1;P2;durP2;ratioP2
48514;SDS011;34309;47.260;2.796;2022-07-29T00:00:43;1.00;;;1.00;;
48514;SDS011;34309;47.260;2.796;2022-07-29T00:03:12;1.17;;;1.17;;
48514;SDS011;34309;47.260;2.796;2022-07-29T00:05:39;1.05;;;1.02;;
48514;SDS011;34309;47.260;2.796;2022-07-29T00:08:06;0.68;;;0.68;;
48514;SDS011;34309;47.260;2.796;2022-07-29T00:10:32;0.93;;;0.93;;
48514;SDS011;34309;47.260;2.796;2022-07-29T00:12:58;1.13;;;1.13;;
48514;SDS011;34309;47.260;2.796;2022-07-29T00:15:23;0.98;;;0.98;;
48514;SDS011;34309;47.260;2.796;2022-07-29T00:17:49;0.57;;;0.57;;
48514;SDS011;34309;47.260;2.796;2022-07-29T00:20:15;1.35;;;1.17;;
48514;SDS011;34309;47.260;2.796;2022-07-29T00:22:41;0.80;;;0.80;;
48514;SDS011;34309;47.260;2.796;2022-07-29T00:25:07;0.85;;;0.85;;
48514;SDS011;34309;47.260;2.796;2022-07-29T00:27:34;1.00;;;1.00;;
48514;SDS011;34309;47.260;2.796;2022-07-29T00:30:00;0.77;;;0.77;;
48514;SDS011;34309;47.260;2.796;2022-07-29T00:32:26;0.80;;;0.73;;
48514;SDS011;34309;47.260;2.796;2022-07-29T00:34:52;0.95;;;0.95;;
48514;SDS011;34309;47.260;2.796;2022-07-29T00:37:37;1.90;;;1.25;;
48514;SDS011;34309;47.260;2.796;2022-07-29T00:40:03;0.80;;;0.80;;
48514;SDS011;34309;47.260;2.796;2022-07-29T00:42:29;0.73;;;0.73;;
48514;SDS011;34309;47.260;2.796;2022-07-29T00:44:54;0.73;;;0.73;;
48514;SDS011;34309;47.260;2.796;2022-07-29T00:47:20;0.70;;;0.70;;
48514;SDS011;34309;47.260;2.796;2022-07-29T00:49:46;0.93;;;0.93;;
48514;SDS011;34309;47.260;2.796;2022-07-29T00:52:12;0.88;;;0.88;;
48514;SDS011;34309;47.260;2.796;2022-07-29T00:54:39;1.60;;;1.38;;
48514;SDS011;34309;47.260;2.796;2022-07-29T00:57:05;0.93;;;0.93;;
48514;SDS011;34309;47.260;2.796;2022-07-29T00:59:33;0.70;;;0.70;;
48514;SDS011;34309;47.260;2.796;2022-07-29T01:01:59;0.70;;;0.70;;
48514;SDS011;34309;47.260;2.796;2022-07-29T01:04:25;2.00;;;0.93;;
48514;SDS011;34309;47.260;2.796;2022-07-29T01:06:51;0.50;;;0.50;;
48514;SDS011;34309;47.260;2.796;2022-07-29T01:09:18;0.70;;;0.70;;
48514;SDS011;34309;47.260;2.796;2022-07-29T01:11:44;0.90;;;0.90;;
48514;SDS011;34309;47.260;2.796;2022-07-29T01:14:14;0.65;;;0.65;;
48514;SDS011;34309;47.260;2.796;2022-07-29T01:17:02;0.80;;;0.80;;
48514;SDS011;34309;47.260;2.796;2022-07-29T01:31:04;1.50;;;1.02;;
48514;SDS011;34309;47.260;2.796;2022-07-29T01:33:35;0.93;;;0.93;;
48514;SDS011;34309;47.260;2.796;2022-07-29T01:36:19;1.33;;;1.23;;
48514;SDS011;34309;47.260;2.796;2022-07-29T01:38:54;0.80;;;0.80;;
48514;SDS011;34309;47.260;2.796;2022-07-29T01:41:27;0.93;;;0.93;;
48514;SDS011;34309;47.260;2.796;2022-07-29T01:43:58;0.90;;;0.90;;
48514;SDS011;34309;47.260;2.796;2022-07-29T01:46:35;0.60;;;0.60;;
48514;SDS011;34309;47.260;2.796;2022-07-29T01:49:16;1.10;;;1.08;;
48514;SDS011;34309;47.260;2.796;2022-07-29T01:52:05;0.90;;;0.90;;
48514;SDS011;34309;47.260;2.796;2022-07-29T01:54:57;0.68;;;0.68;;
48514;SDS011;34309;47.260;2.796;2022-07-29T01:57:27;1.05;;;1.05;;
48514;SDS011;34309;47.260;2.796;2022-07-29T01:59:56;1.52;;;0.77;;
48514;SDS011;34309;47.260;2.796;2022-07-29T02:02:24;0.82;;;0.82;;
48514;SDS011;34309;47.260;2.796;2022-07-29T02:04:53;0.85;;;0.85;;
48514;SDS011;34309;47.260;2.796;2022-07-29T02:07:21;0.77;;;0.77;;
48514;SDS011;34309;47.260;2.796;2022-07-29T02:09:51;0.85;;;0.85;;
48514;SDS011;34309;47.260;2.796;2022-07-29T02:12:18;0.60;;;0.60;;
48514;SDS011;34309;47.260;2.796;2022-07-29T02:14:47;1.10;;;1.10;;
48514;SDS011;34309;47.260;2.796;2022-07-29T02:17:16;0.80;;;0.80;;
48514;SDS011;34309;47.260;2.796;2022-07-29T02:19:55;0.82;;;0.82;;
48514;SDS011;34309;47.260;2.796;2022-07-29T02:22:25;1.10;;;1.00;;
48514;SDS011;34309;47.260;2.796;2022-07-29T02:24:54;0.70;;;0.70;;
48514;SDS011;34309;47.260;2.796;2022-07-29T02:27:20;1.42;;;1.33;;
48514;SDS011;34309;47.260;2.796;2022-07-29T02:29:48;0.70;;;0.70;;
48514;SDS011;34309;47.260;2.796;2022-07-29T02:32:16;0.80;;;0.80;;
48514;SDS011;34309;47.260;2.796;2022-07-29T02:34:44;0.80;;;0.80;;
48514;SDS011;34309;47.260;2.796;2022-07-29T02:37:11;0.90;;;0.90;;
48514;SDS011;34309;47.260;2.796;2022-07-29T02:39:38;1.10;;;1.10;;
48514;SDS011;34309;47.260;2.796;2022-07-29T02:42:07;0.88;;;0.88;;
48514;SDS011;34309;47.260;2.796;2022-07-29T02:44:37;3.45;;;1.45;;
48514;SDS011;34309;47.260;2.796;2022-07-29T02:54:41;0.65;;;0.65;;
48514;SDS011;34309;47.260;2.796;2022-07-29T02:57:37;1.20;;;1.10;;
48514;SDS011;34309;47.260;2.796;2022-07-29T03:00:08;0.60;;;0.60;;
48514;SDS011;34309;47.260;2.796;2022-07-29T03:02:36;1.05;;;0.98;;
48514;SDS011;34309;47.260;2.796;2022-07-29T03:05:06;0.63;;;0.63;;
48514;SDS011;34309;47.260;2.796;2022-07-29T03:07:35;0.93;;;0.93;;
48514;SDS011;34309;47.260;2.796;2022-07-29T03:10:03;0.75;;;0.75;;
48514;SDS011;34309;47.260;2.796;2022-07-29T03:12:30;0.80;;;0.80;;
48514;SDS011;34309;47.260;2.796;2022-07-29T03:14:56;1.13;;;1.13;;
48514;SDS011;34309;47.260;2.796;2022-07-29T03:17:22;1.63;;;1.20;;
48514;SDS011;34309;47.260;2.796;2022-07-29T03:19:48;1.13;;;0.98;;
48514;SDS011;34309;47.260;2.796;2022-07-29T03:22:15;0.98;;;0.98;;
48514;SDS011;34309;47.260;2.796;2022-07-29T03:24:40;1.10;;;1.00;;
48514;SDS011;34309;47.260;2.796;2022-07-29T03:27:06;0.90;;;0.75;;
48514;SDS011;34309;47.260;2.796;2022-07-29T03:29:32;0.60;;;0.60;;
48514;SDS011;34309;47.260;2.796;2022-07-29T03:31:58;1.17;;;1.08;;
48514;SDS011;34309;47.260;2.796;2022-07-29T03:34:24;0.98;;;0.98;;
48514;SDS011;34309;47.260;2.796;2022-07-29T03:36:49;0.88;;;0.88;;
48514;SDS011;34309;47.260;2.796;2022-07-29T03:39:17;0.60;;;0.60;;
48514;SDS011;34309;47.260;2.796;2022-07-29T03:41:47;0.82;;;0.82;;
48514;SDS011;34309;47.260;2.796;2022-07-29T03:44:17;2.95;;;1.13;;
48514;SDS011;34309;47.260;2.796;2022-07-29T03:46:44;1.05;;;0.95;;
48514;SDS011;34309;47.260;2.796;2022-07-29T03:49:13;0.60;;;0.60;;
48514;SDS011;34309;47.260;2.796;2022-07-29T03:51:41;1.30;;;1.20;;
48514;SDS011;34309;47.260;2.796;2022-07-29T03:54:07;0.63;;;0.63;;
48514;SDS011;34309;47.260;2.796;2022-07-29T03:56:34;0.80;;;0.80;;
48514;SDS011;34309;47.260;2.796;2022-07-29T03:59:04;0.80;;;0.80;;
48514;SDS011;34309;47.260;2.796;2022-07-29T04:01:32;0.90;;;0.90;;
48514;SDS011;34309;47.260;2.796;2022-07-29T04:03:59;1.05;;;1.05;;
48514;SDS011;34309;47.260;2.796;2022-07-29T04:06:26;0.73;;;0.73;;
48514;SDS011;34309;47.260;2.796;2022-07-29T04:08:52;1.15;;;0.80;;
48514;SDS011;34309;47.260;2.796;2022-07-29T04:11:17;1.27;;;1.17;;
48514;SDS011;34309;47.260;2.796;2022-07-29T04:13:43;0.55;;;0.55;;
48514;SDS011;34309;47.260;2.796;2022-07-29T04:16:09;0.55;;;0.55;;
48514;SDS011;34309;47.260;2.796;2022-07-29T04:18:35;0.85;;;0.85;;
48514;SDS011;34309;47.260;2.796;2022-07-29T04:21:00;1.00;;;1.00;;
48514;SDS011;34309;47.260;2.796;2022-07-29T04:23:27;0.70;;;0.70;;
48514;SDS011;34309;47.260;2.796;2022-07-29T04:25:57;0.73;;;0.73;;
48514;SDS011;34309;47.260;2.796;2022-07-29T04:28:23;1.25;;;1.23;;
48514;SDS011;34309;47.260;2.796;2022-07-29T04:30:48;1.33;;;1.10;;
48514;SDS011;34309;47.260;2.796;2022-07-29T04:33:14;1.63;;;1.25;;
48514;SDS011;34309;47.260;2.796;2022-07-29T04:35:40;1.02;;;1.02;;
48514;SDS011;34309;47.260;2.796;2022-07-29T04:38:06;1.52;;;0.88;;
48514;SDS011;34309;47.260;2.796;2022-07-29T04:40:32;0.98;;;0.98;;
48514;SDS011;34309;47.260;2.796;2022-07-29T04:42:59;0.80;;;0.80;;
48514;SDS011;34309;47.260;2.796;2022-07-29T04:45:25;0.80;;;0.80;;
48514;SDS011;34309;47.260;2.796;2022-07-29T04:47:51;0.90;;;0.90;;
48514;SDS011;34309;47.260;2.796;2022-07-29T04:50:17;0.60;;;0.60;;
48514;SDS011;34309;47.260;2.796;2022-07-29T04:52:43;1.07;;;1.07;;
48514;SDS011;34309;47.260;2.796;2022-07-29T04:55:09;1.27;;;1.27;;
48514;SDS011;34309;47.260;2.796;2022-07-29T04:57:34;0.85;;;0.70;;
48514;SDS011;34309;47.260;2.796;2022-07-29T05:00:00;0.70;;;0.70;;
48514;SDS011;34309;47.260;2.796;2022-07-29T05:02:26;1.27;;;1.05;;
48514;SDS011;34309;47.260;2.796;2022-07-29T05:04:52;0.88;;;0.88;;
48514;SDS011;34309;47.260;2.796;2022-07-29T05:07:18;0.65;;;0.65;;
48514;SDS011;34309;47.260;2.796;2022-07-29T05:09:44;0.35;;;0.35;;
48514;SDS011;34309;47.260;2.796;2022-07-29T05:12:09;1.17;;;1.10;;
48514;SDS011;34309;47.260;2.796;2022-07-29T05:14:35;1.05;;;0.95;;
48514;SDS011;34309;47.260;2.796;2022-07-29T05:17:01;0.80;;;0.75;;
48514;SDS011;34309;47.260;2.796;2022-07-29T05:19:27;1.52;;;1.13;;
48514;SDS011;34309;47.260;2.796;2022-07-29T05:21:52;1.45;;;1.00;;
48514;SDS011;34309;47.260;2.796;2022-07-29T05:24:18;0.50;;;0.50;;
48514;SDS011;34309;47.260;2.796;2022-07-29T05:26:44;1.20;;;1.10;;
48514;SDS011;34309;47.260;2.796;2022-07-29T05:29:09;1.05;;;1.00;;
48514;SDS011;34309;47.260;2.796;2022-07-29T05:31:36;0.80;;;0.80;;
48514;SDS011;34309;47.260;2.796;2022-07-29T05:34:01;0.90;;;0.90;;
48514;SDS011;34309;47.260;2.796;2022-07-29T05:36:27;0.88;;;0.80;;
48514;SDS011;34309;47.260;2.796;2022-07-29T05:38:53;4.60;;;1.27;;
48514;SDS011;34309;47.260;2.796;2022-07-29T05:41:19;0.80;;;0.80;;
48514;SDS011;34309;47.260;2.796;2022-07-29T05:43:45;0.57;;;0.57;;
48514;SDS011;34309;47.260;2.796;2022-07-29T05:46:11;0.80;;;0.80;;
48514;SDS011;34309;47.260;2.796;2022-07-29T05:48:36;0.90;;;0.90;;
48514;SDS011;34309;47.260;2.796;2022-07-29T05:51:02;0.90;;;0.90;;
48514;SDS011;34309;47.260;2.796;2022-07-29T05:53:28;0.85;;;0.85;;
48514;SDS011;34309;47.260;2.796;2022-07-29T05:55:54;1.55;;;1.45;;
48514;SDS011;34309;47.260;2.796;2022-07-29T05:58:19;0.80;;;0.80;;
48514;SDS011;34309;47.260;2.796;2022-07-29T06:00:45;1.58;;;1.15;;
48514;SDS011;34309;47.260;2.796;2022-07-29T06:03:11;0.70;;;0.70;;
48514;SDS011;34309;47.260;2.796;2022-07-29T06:05:38;0.63;;;0.60;;
48514;SDS011;34309;47.260;2.796;2022-07-29T06:08:04;0.57;;;0.57;;
48514;SDS011;34309;47.260;2.796;2022-07-29T06:10:36;0.65;;;0.65;;
48514;SDS011;34309;47.260;2.796;2022-07-29T06:13:02;0.95;;;0.95;;
48514;SDS011;34309;47.260;2.796;2022-07-29T06:15:27;0.47;;;0.47;;
48514;SDS011;34309;47.260;2.796;2022-07-29T06:17:53;1.90;;;1.77;;
48514;SDS011;34309;47.260;2.796;2022-07-29T06:20:19;1.58;;;1.10;;
48514;SDS011;34309;47.260;2.796;2022-07-29T06:22:45;0.80;;;0.80;;
48514;SDS011;34309;47.260;2.796;2022-07-29T06:25:10;1.40;;;1.30;;
48514;SDS011;34309;47.260;2.796;2022-07-29T06:27:36;0.70;;;0.70;;
48514;SDS011;34309;47.260;2.796;2022-07-29T06:30:02;0.85;;;0.85;;
48514;SDS011;34309;47.260;2.796;2022-07-29T06:32:31;0.77;;;0.77;;
48514;SDS011;34309;47.260;2.796;2022-07-29T06:34:57;0.70;;;0.70;;
48514;SDS011;34309;47.260;2.796;2022-07-29T06:37:23;1.30;;;1.20;;
48514;SDS011;34309;47.260;2.796;2022-07-29T06:39:48;1.30;;;1.20;;
48514;SDS011;34309;47.260;2.796;2022-07-29T06:42:34;3.27;;;1.30;;
48514;SDS011;34309;47.260;2.796;2022-07-29T06:45:00;1.40;;;1.23;;
48514;SDS011;34309;47.260;2.796;2022-07-29T06:47:25;1.17;;;1.10;;
48514;SDS011;34309;47.260;2.796;2022-07-29T06:49:51;0.87;;;0.87;;
48514;SDS011;34309;47.260;2.796;2022-07-29T06:52:17;0.80;;;0.80;;
48514;SDS011;34309;47.260;2.796;2022-07-29T06:54:43;0.90;;;0.90;;
48514;SDS011;34309;47.260;2.796;2022-07-29T06:57:13;0.70;;;0.70;;
48514;SDS011;34309;47.260;2.796;2022-07-29T06:59:39;0.88;;;0.88;;
48514;SDS011;34309;47.260;2.796;2022-07-29T07:02:05;0.63;;;0.63;;
48514;SDS011;34309;47.260;2.796;2022-07-29T07:04:30;0.52;;;0.52;;
48514;SDS011;34309;47.260;2.796;2022-07-29T07:06:56;1.43;;;1.33;;
48514;SDS011;34309;47.260;2.796;2022-07-29T07:09:22;0.80;;;0.80;;
48514;SDS011;34309;47.260;2.796;2022-07-29T07:11:48;0.83;;;0.83;;
48514;SDS011;34309;47.260;2.796;2022-07-29T07:14:14;1.00;;;1.00;;
48514;SDS011;34309;47.260;2.796;2022-07-29T07:16:39;1.33;;;1.23;;
48514;SDS011;34309;47.260;2.796;2022-07-29T07:19:05;2.23;;;1.30;;
48514;SDS011;34309;47.260;2.796;2022-07-29T07:21:32;1.17;;;1.13;;
48514;SDS011;34309;47.260;2.796;2022-07-29T07:23:58;1.37;;;1.27;;
48514;SDS011;34309;47.260;2.796;2022-07-29T07:26:25;0.60;;;0.60;;
48514;SDS011;34309;47.260;2.796;2022-07-29T07:28:50;0.70;;;0.70;;
48514;SDS011;34309;47.260;2.796;2022-07-29T07:31:16;5.93;;;1.90;;
48514;SDS011;34309;47.260;2.796;2022-07-29T07:33:42;0.70;;;0.67;;
48514;SDS011;34309;47.260;2.796;2022-07-29T07:36:08;1.83;;;1.03;;
48514;SDS011;34309;47.260;2.796;2022-07-29T07:38:33;1.60;;;1.03;;
48514;SDS011;34309;47.260;2.796;2022-07-29T07:41:00;0.87;;;0.87;;
48514;SDS011;34309;47.260;2.796;2022-07-29T07:43:26;0.67;;;0.67;;
48514;SDS011;34309;47.260;2.796;2022-07-29T07:45:51;0.50;;;0.50;;
48514;SDS011;34309;47.260;2.796;2022-07-29T07:48:17;0.82;;;0.82;;
48514;SDS011;34309;47.260;2.796;2022-07-29T07:50:43;1.37;;;1.27;;
48514;SDS011;34309;47.260;2.796;2022-07-29T07:53:09;0.68;;;0.68;;
48514;SDS011;34309;47.260;2.796;2022-07-29T07:55:41;0.70;;;0.70;;
48514;SDS011;34309;47.260;2.796;2022-07-29T07:58:08;0.70;;;0.70;;
48514;SDS011;34309;47.260;2.796;2022-07-29T08:00:34;2.73;;;1.63;;
48514;SDS011;34309;47.260;2.796;2022-07-29T08:03:00;1.30;;;1.23;;
48514;SDS011;34309;47.260;2.796;2022-07-29T08:05:25;2.93;;;2.03;;
48514;SDS011;34309;47.260;2.796;2022-07-29T08:07:51;12.23;;;4.57;;
48514;SDS011;34309;47.260;2.796;2022-07-29T08:10:18;26.20;;;9.33;;
48514;SDS011;34309;47.260;2.796;2022-07-29T08:13:06;13.57;;;6.83;;
48514;SDS011;34309;47.260;2.796;2022-07-29T08:15:34;14.27;;;7.23;;
48514;SDS011;34309;47.260;2.796;2022-07-29T08:18:00;25.97;;;7.13;;
48514;SDS011;34309;47.260;2.796;2022-07-29T08:20:26;8.60;;;5.00;;
48514;SDS011;34309;47.260;2.796;2022-07-29T08:22:52;11.80;;;6.50;;
48514;SDS011;34309;47.260;2.796;2022-07-29T08:25:18;9.83;;;4.50;;
48514;SDS011;34309;47.260;2.796;2022-07-29T08:27:48;14.20;;;5.07;;
48514;SDS011;34309;47.260;2.796;2022-07-29T08:30:14;14.73;;;2.97;;
48514;SDS011;34309;47.260;2.796;2022-07-29T08:32:40;4.80;;;4.30;;
48514;SDS011;34309;47.260;2.796;2022-07-29T08:35:06;5.63;;;3.30;;
48514;SDS011;34309;47.260;2.796;2022-07-29T08:37:31;12.67;;;3.37;;
48514;SDS011;34309;47.260;2.796;2022-07-29T08:39:57;4.90;;;2.45;;
48514;SDS011;34309;47.260;2.796;2022-07-29T08:42:23;10.70;;;3.78;;
48514;SDS011;34309;47.260;2.796;2022-07-29T08:44:49;9.67;;;4.73;;
48514;SDS011;34309;47.260;2.796;2022-07-29T08:47:15;9.82;;;4.22;;
48514;SDS011;34309;47.260;2.796;2022-07-29T08:49:42;4.50;;;3.10;;
48514;SDS011;34309;47.260;2.796;2022-07-29T08:52:10;6.15;;;4.15;;
48514;SDS011;34309;47.260;2.796;2022-07-29T08:54:36;2.53;;;2.33;;
48514;SDS011;34309;47.260;2.796;2022-07-29T08:57:08;3.35;;;2.38;;
48514;SDS011;34309;47.260;2.796;2022-07-29T08:59:38;10.77;;;3.27;;
48514;SDS011;34309;47.260;2.796;2022-07-29T09:02:08;15.15;;;3.47;;
48514;SDS011;34309;47.260;2.796;2022-07-29T09:04:40;16.92;;;4.55;;
48514;SDS011;34309;47.260;2.796;2022-07-29T09:07:06;14.20;;;3.35;;
48514;SDS011;34309;47.260;2.796;2022-07-29T09:09:34;4.38;;;2.17;;
48514;SDS011;34309;47.260;2.796;2022-07-29T09:12:00;8.75;;;4.20;;
48514;SDS011;34309;47.260;2.796;2022-07-29T09:14:26;11.88;;;4.15;;
48514;SDS011;34309;47.260;2.796;2022-07-29T09:16:53;9.73;;;3.77;;
48514;SDS011;34309;47.260;2.796;2022-07-29T09:19:24;5.00;;;3.05;;
48514;SDS011;34309;47.260;2.796;2022-07-29T09:21:50;4.03;;;3.63;;
48514;SDS011;34309;47.260;2.796;2022-07-29T09:24:22;7.95;;;3.05;;
48514;SDS011;34309;47.260;2.796;2022-07-29T09:26:48;5.85;;;3.25;;
48514;SDS011;34309;47.260;2.796;2022-07-29T09:29:15;5.03;;;3.20;;
48514;SDS011;34309;47.260;2.796;2022-07-29T09:31:42;3.25;;;2.80;;
48514;SDS011;34309;47.260;2.796;2022-07-29T09:34:13;5.25;;;2.00;;
48514;SDS011;34309;47.260;2.796;2022-07-29T09:36:41;2.97;;;2.17;;
48514;SDS011;34309;47.260;2.796;2022-07-29T09:39:08;3.92;;;2.53;;
48514;SDS011;34309;47.260;2.796;2022-07-29T09:41:48;5.43;;;3.03;;
48514;SDS011;34309;47.260;2.796;2022-07-29T09:44:18;5.28;;;3.08;;
48514;SDS011;34309;47.260;2.796;2022-07-29T09:46:58;3.15;;;2.05;;
48514;SDS011;34309;47.260;2.796;2022-07-29T09:49:31;3.88;;;2.50;;
48514;SDS011;34309;47.260;2.796;2022-07-29T09:52:04;4.43;;;2.30;;
48514;SDS011;34309;47.260;2.796;2022-07-29T09:54:32;2.95;;;2.22;;
48514;SDS011;34309;47.260;2.796;2022-07-29T09:57:05;5.57;;;2.20;;
48514;SDS011;34309;47.260;2.796;2022-07-29T09:59:33;4.03;;;2.97;;
48514;SDS011;34309;47.260;2.796;2022-07-29T10:01:59;1.85;;;1.70;;
48514;SDS011;34309;47.260;2.796;2022-07-29T10:04:40;7.57;;;2.83;;
48514;SDS011;34309;47.260;2.796;2022-07-29T10:07:07;4.78;;;1.33;;
48514;SDS011;34309;47.260;2.796;2022-07-29T10:09:34;3.58;;;1.45;;
48514;SDS011;34309;47.260;2.796;2022-07-29T10:12:07;2.53;;;2.17;;
48514;SDS011;34309;47.260;2.796;2022-07-29T10:14:40;3.08;;;2.30;;
48514;SDS011;34309;47.260;2.796;2022-07-29T10:17:08;2.08;;;1.85;;
48514;SDS011;34309;47.260;2.796;2022-07-29T10:19:35;7.30;;;3.13;;
48514;SDS011;34309;47.260;2.796;2022-07-29T10:22:03;7.78;;;3.38;;
48514;SDS011;34309;47.260;2.796;2022-07-29T10:24:31;3.58;;;2.13;;
48514;SDS011;34309;47.260;2.796;2022-07-29T10:26:59;11.55;;;2.33;;
48514;SDS011;34309;47.260;2.796;2022-07-29T10:29:26;5.43;;;1.90;;
48514;SDS011;34309;47.260;2.796;2022-07-29T10:40:24;3.22;;;2.67;;
48514;SDS011;34309;47.260;2.796;2022-07-29T10:43:26;6.95;;;3.05;;
48514;SDS011;34309;47.260;2.796;2022-07-29T10:45:57;4.20;;;2.15;;
48514;SDS011;34309;47.260;2.796;2022-07-29T10:48:24;5.93;;;3.37;;
48514;SDS011;34309;47.260;2.796;2022-07-29T10:50:54;1.77;;;1.45;;
48514;SDS011;34309;47.260;2.796;2022-07-29T10:56:30;8.63;;;2.38;;
48514;SDS011;34309;47.260;2.796;2022-07-29T11:01:49;2.65;;;2.05;;
48514;SDS011;34309;47.260;2.796;2022-07-29T11:04:16;2.65;;;1.50;;
48514;SDS011;34309;47.260;2.796;2022-07-29T11:09:30;2.15;;;2.05;;
48514;SDS011;34309;47.260;2.796;2022-07-29T11:11:56;2.40;;;2.30;;
48514;SDS011;34309;47.260;2.796;2022-07-29T11:17:22;1.88;;;1.73;;
48514;SDS011;34309;47.260;2.796;2022-07-29T11:19:48;3.78;;;2.38;;
48514;SDS011;34309;47.260;2.796;2022-07-29T11:22:33;2.92;;;1.63;;
48514;SDS011;34309;47.260;2.796;2022-07-29T11:25:12;0.65;;;0.65;;
48514;SDS011;34309;47.260;2.796;2022-07-29T11:27:39;4.18;;;2.00;;
48514;SDS011;34309;47.260;2.796;2022-07-29T11:30:05;1.00;;;1.00;;
48514;SDS011;34309;47.260;2.796;2022-07-29T11:32:39;3.80;;;2.10;;
48514;SDS011;34309;47.260;2.796;2022-07-29T11:35:16;1.70;;;1.60;;
48514;SDS011;34309;47.260;2.796;2022-07-29T11:37:45;0.97;;;0.97;;
48514;SDS011;34309;47.260;2.796;2022-07-29T11:40:13;1.87;;;1.73;;
48514;SDS011;34309;47.260;2.796;2022-07-29T11:42:41;2.10;;;1.48;;
48514;SDS011;34309;47.260;2.796;2022-07-29T11:45:21;3.88;;;1.58;;
48514;SDS011;34309;47.260;2.796;2022-07-29T11:47:50;2.55;;;1.88;;
48514;SDS011;34309;47.260;2.796;2022-07-29T11:50:31;0.93;;;0.93;;
48514;SDS011;34309;47.260;2.796;2022-07-29T11:52:57;4.55;;;1.60;;
48514;SDS011;34309;47.260;2.796;2022-07-29T11:55:24;2.00;;;1.52;;
48514;SDS011;34309;47.260;2.796;2022-07-29T11:57:58;2.92;;;1.90;;
48514;SDS011;34309;47.260;2.796;2022-07-29T12:02:58;3.85;;;3.35;;
48514;SDS011;34309;47.260;2.796;2022-07-29T12:05:30;1.77;;;1.67;;
48514;SDS011;34309;47.260;2.796;2022-07-29T12:10:51;1.33;;;1.30;;
48514;SDS011;34309;47.260;2.796;2022-07-29T12:13:18;2.47;;;1.20;;
48514;SDS011;34309;47.260;2.796;2022-07-29T12:15:55;3.28;;;1.98;;
48514;SDS011;34309;47.260;2.796;2022-07-29T12:18:22;1.40;;;1.30;;
48514;SDS011;34309;47.260;2.796;2022-07-29T12:20:48;1.58;;;1.48;;
48514;SDS011;34309;47.260;2.796;2022-07-29T12:23:20;4.88;;;1.55;;
48514;SDS011;34309;47.260;2.796;2022-07-29T12:25:46;3.10;;;0.88;;
48514;SDS011;34309;47.260;2.796;2022-07-29T12:28:13;1.73;;;1.23;;
48514;SDS011;34309;47.260;2.796;2022-07-29T12:30:50;1.30;;;1.20;;
48514;SDS011;34309;47.260;2.796;2022-07-29T12:33:24;2.15;;;1.35;;
48514;SDS011;34309;47.260;2.796;2022-07-29T12:35:55;1.02;;;0.98;;
48514;SDS011;34309;47.260;2.796;2022-07-29T12:38:25;1.63;;;1.52;;
48514;SDS011;34309;47.260;2.796;2022-07-29T12:40:52;3.33;;;1.05;;
48514;SDS011;34309;47.260;2.796;2022-07-29T12:43:19;1.77;;;1.67;;
48514;SDS011;34309;47.260;2.796;2022-07-29T12:45:47;2.75;;;1.13;;
48514;SDS011;34309;47.260;2.796;2022-07-29T12:48:15;1.10;;;1.10;;
48514;SDS011;34309;47.260;2.796;2022-07-29T12:51:00;0.93;;;0.93;;
48514;SDS011;34309;47.260;2.796;2022-07-29T12:53:28;1.52;;;0.85;;
48514;SDS011;34309;47.260;2.796;2022-07-29T12:55:54;2.85;;;1.50;;
48514;SDS011;34309;47.260;2.796;2022-07-29T13:01:15;0.85;;;0.85;;
48514;SDS011;34309;47.260;2.796;2022-07-29T13:03:52;3.22;;;1.40;;
48514;SDS011;34309;47.260;2.796;2022-07-29T13:11:31;3.90;;;1.88;;
48514;SDS011;34309;47.260;2.796;2022-07-29T13:13:58;1.70;;;1.60;;
48514;SDS011;34309;47.260;2.796;2022-07-29T13:16:24;1.05;;;0.95;;
48514;SDS011;34309;47.260;2.796;2022-07-29T13:19:02;2.33;;;1.83;;
48514;SDS011;34309;47.260;2.796;2022-07-29T13:21:29;6.38;;;1.15;;
48514;SDS011;34309;47.260;2.796;2022-07-29T13:23:55;2.45;;;1.13;;
48514;SDS011;34309;47.260;2.796;2022-07-29T13:26:20;1.13;;;1.02;;
48514;SDS011;34309;47.260;2.796;2022-07-29T13:28:46;0.90;;;0.88;;
48514;SDS011;34309;47.260;2.796;2022-07-29T13:31:12;0.75;;;0.75;;
48514;SDS011;34309;47.260;2.796;2022-07-29T13:33:38;0.80;;;0.80;;
48514;SDS011;34309;47.260;2.796;2022-07-29T13:36:03;2.65;;;1.65;;
48514;SDS011;34309;47.260;2.796;2022-07-29T13:38:29;0.98;;;0.98;;
48514;SDS011;34309;47.260;2.796;2022-07-29T13:40:55;1.70;;;1.60;;
48514;SDS011;34309;47.260;2.796;2022-07-29T13:43:21;1.48;;;1.38;;
48514;SDS011;34309;47.260;2.796;2022-07-29T13:45:46;2.33;;;1.00;;
48514;SDS011;34309;47.260;2.796;2022-07-29T13:48:12;1.55;;;1.45;;
48514;SDS011;34309;47.260;2.796;2022-07-29T13:50:38;1.05;;;1.02;;
48514;SDS011;34309;47.260;2.796;2022-07-29T13:53:04;0.88;;;0.88;;
48514;SDS011;34309;47.260;2.796;2022-07-29T13:55:30;0.53;;;0.53;;
48514;SDS011;34309;47.260;2.796;2022-07-29T13:57:56;0.93;;;0.93;;
48514;SDS011;34309;47.260;2.796;2022-07-29T14:00:21;1.10;;;1.10;;
48514;SDS011;34309;47.260;2.796;2022-07-29T14:02:48;0.73;;;0.73;;
48514;SDS011;34309;47.260;2.796;2022-07-29T14:05:14;0.60;;;0.60;;
48514;SDS011;34309;47.260;2.796;2022-07-29T14:07:40;3.28;;;1.83;;
48514;SDS011;34309;47.260;2.796;2022-07-29T14:10:06;1.63;;;1.52;;
48514;SDS011;34309;47.260;2.796;2022-07-29T14:12:32;1.48;;;1.38;;
48514;SDS011;34309;47.260;2.796;2022-07-29T14:14:57;1.27;;;1.27;;
48514;SDS011;34309;47.260;2.796;2022-07-29T14:17:23;0.70;;;0.70;;
48514;SDS011;34309;47.260;2.796;2022-07-29T14:19:49;1.98;;;1.38;;
48514;SDS011;34309;47.260;2.796;2022-07-29T14:22:14;3.75;;;2.00;;
48514;SDS011;34309;47.260;2.796;2022-07-29T14:24:40;0.85;;;0.85;;
48514;SDS011;34309;47.260;2.796;2022-07-29T14:27:06;0.77;;;0.65;;
48514;SDS011;34309;47.260;2.796;2022-07-29T14:29:32;1.85;;;1.75;;
48514;SDS011;34309;47.260;2.796;2022-07-29T14:31:59;0.82;;;0.82;;
48514;SDS011;34309;47.260;2.796;2022-07-29T14:34:24;1.02;;;1.02;;
48514;SDS011;34309;47.260;2.796;2022-07-29T14:36:50;1.67;;;1.58;;
48514;SDS011;34309;47.260;2.796;2022-07-29T14:39:16;0.60;;;0.60;;
48514;SDS011;34309;47.260;2.796;2022-07-29T14:41:42;0.73;;;0.73;;
48514;SDS011;34309;47.260;2.796;2022-07-29T14:44:08;0.60;;;0.60;;
48514;SDS011;34309;47.260;2.796;2022-07-29T14:46:34;0.85;;;0.85;;
48514;SDS011;34309;47.260;2.796;2022-07-29T14:49:00;1.92;;;1.10;;
48514;SDS011;34309;47.260;2.796;2022-07-29T14:51:25;1.58;;;0.80;;
48514;SDS011;34309;47.260;2.796;2022-07-29T14:53:51;2.88;;;1.13;;
48514;SDS011;34309;47.260;2.796;2022-07-29T14:56:17;2.88;;;1.17;;
48514;SDS011;34309;47.260;2.796;2022-07-29T14:58:42;1.00;;;0.90;;
48514;SDS011;34309;47.260;2.796;2022-07-29T15:01:08;1.50;;;1.40;;
48514;SDS011;34309;47.260;2.796;2022-07-29T15:03:34;2.45;;;1.45;;
48514;SDS011;34309;47.260;2.796;2022-07-29T15:05:59;1.50;;;1.20;;
48514;SDS011;34309;47.260;2.796;2022-07-29T15:08:25;0.93;;;0.88;;
48514;SDS011;34309;47.260;2.796;2022-07-29T15:10:53;0.65;;;0.65;;
48514;SDS011;34309;47.260;2.796;2022-07-29T15:13:19;1.65;;;1.55;;
48514;SDS011;34309;47.260;2.796;2022-07-29T15:15:44;1.13;;;1.02;;
48514;SDS011;34309;47.260;2.796;2022-07-29T15:18:10;1.52;;;1.42;;
48514;SDS011;34309;47.260;2.796;2022-07-29T15:20:36;0.60;;;0.60;;
48514;SDS011;34309;47.260;2.796;2022-07-29T15:23:02;4.03;;;1.27;;
48514;SDS011;34309;47.260;2.796;2022-07-29T15:25:28;1.95;;;1.63;;
48514;SDS011;34309;47.260;2.796;2022-07-29T15:27:53;0.65;;;0.65;;
48514;SDS011;34309;47.260;2.796;2022-07-29T15:30:19;2.28;;;0.88;;
48514;SDS011;34309;47.260;2.796;2022-07-29T15:32:45;3.03;;;0.80;;
48514;SDS011;34309;47.260;2.796;2022-07-29T15:35:11;0.80;;;0.80;;
48514;SDS011;34309;47.260;2.796;2022-07-29T15:37:37;0.60;;;0.60;;
48514;SDS011;34309;47.260;2.796;2022-07-29T15:40:04;1.98;;;0.70;;
48514;SDS011;34309;47.260;2.796;2022-07-29T15:42:31;1.60;;;1.50;;
48514;SDS011;34309;47.260;2.796;2022-07-29T15:44:57;0.80;;;0.80;;